Aérodrome :
LOGIN :

S'inscrire | Disclaimer

   EN    FR    IT 

 










Légende :    VFR   VFR Marginal   IFR   IFR Intensif   IFR Très Intensif
Visi : 
Plafond : 
>= 8 km
>= 3000ft
5 à 8 km
1000 à 3000 ft
1500m à 5 km
500 à 1000 ft
800 à 1500m
200 à 500 ft
< 800m
< 200 ft
Symboles :   Orages  Brouillard  Fortes neiges  Fortes précipitations  Vent > 20 kt
SIGMETs :   Divers  Orages  Givrage  Turbulence  Onde Orograph.  Cendres Volcan.






- Altitude de l'aérodrome : 18 ft
- Code IATA : AJA


LFKJ - Ajaccio

DERNIER METAR :
  • 050800Z AUTO 24008KT 9999 SCT038 BKN054 25/17 Q1013 NOSIG

METARs EXPIRÉS :
  • 050730Z AUTO VRB03KT 9999 FEW029 SCT048 25/18 Q1013 NOSIG
  • 050700Z AUTO VRB02KT 9999 FEW031 SCT038 BKN049 23/19 Q1013 BECMG 29012KT
  • 050630Z AUTO 04003KT 9999 FEW026 SCT034 21/18 Q1013 BECMG 29012KT
  • 050600Z AUTO VRB03KT 9999 FEW034 20/18 Q1012 NOSIG
  • 050530Z AUTO 06004KT 9999 FEW038 SCT046 19/17 Q1012 BECMG 29012KT

TAF TAF LFKJ
Valide du 05 à 03h jusqu'au 06 à 03h UTC


050200Z 0503/0603 29006KT 9999 SCT030
TEMPO 0503/0603 BKN023
BECMG 0506/0508 29012KT
BECMG 0520/0521 05004KT
ATIS : +33 4 95 23 59 85



MET'MAP, la Météo Aéronautique d'un coup d'oeil ! - Copyright ORBIFLY Décembre 2007 - Disclaimer

ORBIFLY MET'MAP TEAM :

Programmation & Développement : Alexandra Zaïnal
Sur une idée originale de : Baudouin d'Aumeries
Assistance à la programmation : Marc-Olivier Méhu
Soutien technique & logistique : Manuel Goepfert

Contact : metmap@orbifly.com




SOURCES & CREDITS :

   NOAA